Portada
METAR-TAF:

METAR-TAF

Aeroports :

Middleton Island, Alaska, Estats Units d'Amèrica

latitud: 59-26N, longitud: 146-18W, altitud: 27 m

Observació

L'informe es va fer fa 11 minuts, a les 04:55 UTC
Vent 18 kt del Est
Temperatura 8°C
Humitat 93%
Pressió 1017 hPa
Visibilitat: 4.0 km
Cel ennuvolat a una alçada de 400 ft
Cel ennuvolat a una alçada de 700 ft
Cel cobert a una alçada de 1400 ft
pluja, boirina

METAR: PAMD 260455Z AUTO 10018KT 2 1/2SM RA BR BKN004 BKN007 OVC014 08/07 A3004 RMK AO2 P0001

Hora: 21:06 (05:06 UTC)


TAF: manca

Observacions i pronòstics meteorològics de més de 4000 aeroports (METAR i TAF).

Les estacions disponibles són els punts grocs i vermells al mapa.

Posi el ratolí al punt desitjat per veure el nom de l'estació.

Feu clic per veure les observacions i els pronòstics meteorològics.

Per canviar el mapa: feu clic els botons verds amb una creu de color negre per apropar; al botó verd amb un guió per allunyar la imatge; o en les fletxes verdes per a mapes adjacents.


METAR-TAF: